createdAt,value
2019-05-25T00:01:15.949Z,15.60
2019-05-25T00:03:46.223Z,15.60
2019-05-25T00:06:16.582Z,15.50
2019-05-25T00:08:47.083Z,15.50
2019-05-25T00:11:17.621Z,15.40
2019-05-25T00:13:47.997Z,15.40
2019-05-25T00:16:18.381Z,15.30
2019-05-25T00:18:48.665Z,15.30
2019-05-25T00:21:19.021Z,15.30
2019-05-25T00:23:49.389Z,15.20
2019-05-25T00:26:19.801Z,15.20
2019-05-25T00:28:50.315Z,15.10
2019-05-25T00:31:20.738Z,15.10
2019-05-25T00:33:52.369Z,15.10
2019-05-25T00:36:22.800Z,15.10
2019-05-25T00:38:53.199Z,15.10
2019-05-25T00:41:23.561Z,15.00
2019-05-25T00:43:53.903Z,14.90
2019-05-25T00:46:24.393Z,14.90
2019-05-25T00:48:54.745Z,14.90
2019-05-25T00:51:25.072Z,14.80
2019-05-25T00:53:55.474Z,14.70
2019-05-25T00:56:26.154Z,14.70
2019-05-25T00:58:56.499Z,14.60
2019-05-25T01:01:26.795Z,14.60
2019-05-25T01:03:57.202Z,14.50
2019-05-25T01:06:27.529Z,14.40
2019-05-25T01:08:57.937Z,14.40
2019-05-25T01:11:28.325Z,14.40
2019-05-25T01:13:59.083Z,14.30
2019-05-25T01:16:29.486Z,14.20
2019-05-25T01:18:59.833Z,14.20
2019-05-25T01:21:32.079Z,14.20
2019-05-25T01:24:02.561Z,14.10
2019-05-25T01:26:33.083Z,14.00
2019-05-25T01:29:03.462Z,13.90
2019-05-25T01:31:33.831Z,13.90
2019-05-25T01:34:04.264Z,13.80
2019-05-25T01:36:34.661Z,13.80
2019-05-25T01:39:07.067Z,13.70
2019-05-25T01:41:37.636Z,13.70
2019-05-25T01:44:07.971Z,13.60
2019-05-25T01:46:38.360Z,13.60
2019-05-25T01:49:09.992Z,13.60
2019-05-25T01:51:40.389Z,13.50
2019-05-25T01:54:10.719Z,13.50
2019-05-25T01:56:41.094Z,13.50
2019-05-25T01:59:11.459Z,13.40
2019-05-25T02:01:41.883Z,13.40
2019-05-25T02:04:12.313Z,13.40
2019-05-25T02:06:42.583Z,13.40
2019-05-25T02:09:12.931Z,13.30
2019-05-25T02:11:43.320Z,13.30
2019-05-25T02:14:14.779Z,13.30
2019-05-25T02:16:45.154Z,13.30
2019-05-25T02:19:16.637Z,13.30
2019-05-25T02:21:47.032Z,13.20
2019-05-25T02:24:17.271Z,13.20
2019-05-25T02:26:47.678Z,13.20
2019-05-25T02:29:18.021Z,13.20
2019-05-25T02:31:48.352Z,13.10
2019-05-25T02:34:18.775Z,13.10
2019-05-25T02:36:49.475Z,13.10
2019-05-25T02:39:19.799Z,13.10
2019-05-25T02:41:50.239Z,13.10
2019-05-25T02:44:20.680Z,13.10
2019-05-25T02:46:51.071Z,13.10
2019-05-25T02:49:22.064Z,13.10
2019-05-25T02:51:52.609Z,13.10
2019-05-25T02:54:22.939Z,13.10
2019-05-25T02:56:53.310Z,13.10
2019-05-25T02:59:23.668Z,13.10
2019-05-25T03:01:54.364Z,13.10
2019-05-25T03:04:24.905Z,13.20
2019-05-25T03:06:56.077Z,13.20
2019-05-25T03:09:28.505Z,13.20
2019-05-25T03:12:00.730Z,13.30
2019-05-25T03:14:31.103Z,13.40
2019-05-25T03:17:01.570Z,13.40
2019-05-25T03:19:31.937Z,13.40
2019-05-25T03:22:02.295Z,13.40
2019-05-25T03:24:32.618Z,13.60
2019-05-25T03:27:03.451Z,13.80
2019-05-25T03:29:33.795Z,14.00
2019-05-25T03:32:04.090Z,14.20
2019-05-25T03:34:34.400Z,14.40
2019-05-25T03:37:04.687Z,14.50
2019-05-25T03:39:35.042Z,14.60
2019-05-25T03:42:09.160Z,14.80
2019-05-25T03:44:39.513Z,14.80
2019-05-25T03:47:09.927Z,14.60
2019-05-25T03:49:40.367Z,14.50
2019-05-25T03:52:10.762Z,14.40
2019-05-25T03:54:41.141Z,14.40
2019-05-25T03:57:11.509Z,14.40
2019-05-25T03:59:41.891Z,14.60
2019-05-25T04:02:12.320Z,14.80
2019-05-25T04:04:42.889Z,14.80
2019-05-25T04:07:13.282Z,14.90
2019-05-25T04:09:43.599Z,14.90
2019-05-25T04:12:13.987Z,15.10
2019-05-25T04:14:44.296Z,15.30
2019-05-25T04:17:14.676Z,15.60
2019-05-25T04:19:45.120Z,15.90
2019-05-25T04:22:15.439Z,16.30
2019-05-25T04:24:45.835Z,16.60
2019-05-25T04:27:16.319Z,17.00
2019-05-25T04:29:46.709Z,17.40
2019-05-25T04:32:17.098Z,17.80
2019-05-25T04:34:47.558Z,17.80
2019-05-25T04:37:17.934Z,17.90
2019-05-25T04:39:48.415Z,18.20
2019-05-25T04:42:18.719Z,18.50
2019-05-25T04:44:49.121Z,18.90
2019-05-25T04:47:27.048Z,19.10
2019-05-25T04:49:51.490Z,19.20
2019-05-25T04:52:21.877Z,19.30
2019-05-25T04:54:52.275Z,19.40
2019-05-25T04:57:22.603Z,19.50
2019-05-25T04:59:52.988Z,19.60
2019-05-25T05:02:23.413Z,19.80
2019-05-25T05:04:53.721Z,19.90
2019-05-25T05:07:24.430Z,20.10
2019-05-25T05:10:02.565Z,20.20
2019-05-25T05:12:26.735Z,20.40
2019-05-25T05:14:58.821Z,20.60
2019-05-25T05:17:29.200Z,20.70
2019-05-25T05:19:59.576Z,20.80
2019-05-25T05:22:29.983Z,21.10
2019-05-25T05:25:01.146Z,21.30
2019-05-25T05:27:31.434Z,21.60
2019-05-25T05:30:01.697Z,22.00
2019-05-25T05:32:32.202Z,22.10
2019-05-25T05:35:02.558Z,22.30
2019-05-25T05:37:33.649Z,22.40
2019-05-25T05:40:05.033Z,22.70
2019-05-25T05:42:38.911Z,22.90
2019-05-25T05:45:09.846Z,22.90
2019-05-25T05:47:42.777Z,22.90
2019-05-25T05:50:13.906Z,23.00
2019-05-25T05:52:44.424Z,23.10
2019-05-25T05:55:17.404Z,23.20
2019-05-25T05:57:48.082Z,23.40
2019-05-25T06:00:19.624Z,23.50
2019-05-25T06:02:49.953Z,23.70
2019-05-25T06:05:20.360Z,23.80
2019-05-25T06:07:50.666Z,23.80
2019-05-25T06:10:21.464Z,23.90
2019-05-25T06:12:52.365Z,24.10
2019-05-25T06:15:22.901Z,24.30
2019-05-25T06:17:53.291Z,24.30
2019-05-25T06:20:24.357Z,24.40
2019-05-25T06:22:54.686Z,24.50
2019-05-25T06:25:25.117Z,24.60
2019-05-25T06:27:55.452Z,24.60
2019-05-25T06:30:26.104Z,24.50
2019-05-25T06:32:56.486Z,24.40
2019-05-25T06:35:26.962Z,24.40
2019-05-25T06:37:57.342Z,24.40
2019-05-25T06:40:27.694Z,24.50
2019-05-25T06:42:58.083Z,24.50
2019-05-25T06:45:28.488Z,24.60
2019-05-25T06:47:59.087Z,24.70
2019-05-25T06:50:29.584Z,24.80
2019-05-25T06:53:00.015Z,25.00
2019-05-25T06:55:30.426Z,25.10
2019-05-25T06:58:01.913Z,25.20
2019-05-25T07:00:32.321Z,25.30
2019-05-25T07:03:02.669Z,25.40
2019-05-25T07:05:33.014Z,25.60
2019-05-25T07:08:03.401Z,25.70
2019-05-25T07:10:34.156Z,25.70
2019-05-25T07:13:05.305Z,25.90
2019-05-25T07:15:35.656Z,25.90
2019-05-25T07:18:06.024Z,26.00
2019-05-25T07:20:36.379Z,26.10
2019-05-25T07:23:06.745Z,26.20
2019-05-25T07:25:37.139Z,26.40
2019-05-25T07:28:07.537Z,26.30
2019-05-25T07:30:37.880Z,26.30
2019-05-25T07:33:08.298Z,26.50
2019-05-25T07:35:38.712Z,26.50
2019-05-25T07:38:09.063Z,26.60
2019-05-25T07:40:39.422Z,26.70
2019-05-25T07:43:11.096Z,26.80
2019-05-25T07:45:41.457Z,26.60
2019-05-25T07:48:11.842Z,26.80
2019-05-25T07:50:42.084Z,26.80
2019-05-25T07:53:14.193Z,26.80
2019-05-25T07:55:44.669Z,26.90
2019-05-25T07:58:17.965Z,26.90
2019-05-25T08:00:46.921Z,26.90
2019-05-25T08:03:17.288Z,26.80
2019-05-25T08:05:48.947Z,26.80
2019-05-25T08:08:19.291Z,26.80
2019-05-25T08:10:49.636Z,27.00
2019-05-25T08:13:19.992Z,27.00
2019-05-25T08:15:51.729Z,27.00
2019-05-25T08:18:22.111Z,27.10
2019-05-25T08:20:52.488Z,27.10
2019-05-25T08:23:23.310Z,27.20
2019-05-25T08:25:53.649Z,27.20
2019-05-25T08:28:32.937Z,27.30
2019-05-25T08:30:56.540Z,27.40
2019-05-25T08:33:26.897Z,27.50
2019-05-25T08:35:57.371Z,27.80
2019-05-25T08:38:27.749Z,27.90
2019-05-25T08:40:58.141Z,28.20
2019-05-25T08:43:28.505Z,28.30
2019-05-25T08:45:58.891Z,28.20
2019-05-25T08:48:29.345Z,28.20
2019-05-25T08:50:59.879Z,28.00
2019-05-25T08:53:40.565Z,27.90
2019-05-25T08:56:02.469Z,28.10
2019-05-25T08:58:47.556Z,28.10
2019-05-25T09:01:04.930Z,28.20
2019-05-25T09:03:35.256Z,28.30
2019-05-25T09:06:05.696Z,28.40
2019-05-25T09:08:37.422Z,28.60
2019-05-25T09:11:07.804Z,28.70
2019-05-25T09:13:38.193Z,28.60
2019-05-25T09:16:08.544Z,28.40
2019-05-25T09:18:38.903Z,28.40
2019-05-25T09:21:09.341Z,28.70
2019-05-25T09:23:39.623Z,28.90
2019-05-25T09:26:13.235Z,29.20
2019-05-25T09:28:41.890Z,29.20
2019-05-25T09:31:12.217Z,28.80
2019-05-25T09:33:42.584Z,28.60
2019-05-25T09:36:14.056Z,28.60
2019-05-25T09:38:44.378Z,28.60
2019-05-25T09:41:14.779Z,28.40
2019-05-25T09:43:45.311Z,28.00
2019-05-25T09:46:16.839Z,28.10
2019-05-25T09:48:47.429Z,28.10
2019-05-25T09:51:17.819Z,28.10
2019-05-25T09:53:48.208Z,28.00
2019-05-25T09:56:18.508Z,28.30
2019-05-25T09:58:48.932Z,28.40
2019-05-25T10:01:19.280Z,28.60
2019-05-25T10:03:49.571Z,28.70
2019-05-25T10:06:20.387Z,28.60
2019-05-25T10:08:50.755Z,29.10
2019-05-25T10:11:21.176Z,29.40
2019-05-25T10:13:51.552Z,29.60
2019-05-25T10:16:21.952Z,29.80
2019-05-25T10:18:52.294Z,30.00
2019-05-25T10:21:22.670Z,30.00
2019-05-25T10:23:53.186Z,30.20
2019-05-25T10:26:23.550Z,30.20
2019-05-25T10:28:53.910Z,30.30
2019-05-25T10:31:24.296Z,30.10
2019-05-25T10:33:54.722Z,29.70
2019-05-25T10:36:25.442Z,29.50
2019-05-25T10:38:56.039Z,29.20
2019-05-25T10:41:26.634Z,29.10
2019-05-25T10:43:58.125Z,28.90
2019-05-25T10:46:28.811Z,28.90
2019-05-25T10:48:59.274Z,29.00
2019-05-25T10:51:29.571Z,29.10
2019-05-25T10:54:00.016Z,29.10
2019-05-25T10:56:30.404Z,29.10
2019-05-25T10:59:00.839Z,29.30
2019-05-25T11:01:31.270Z,29.50
2019-05-25T11:04:01.548Z,29.60
2019-05-25T11:06:34.865Z,29.40
2019-05-25T11:09:05.407Z,29.40
2019-05-25T11:11:35.783Z,29.40
2019-05-25T11:14:06.573Z,29.40
2019-05-25T11:16:36.982Z,29.40
2019-05-25T11:19:07.338Z,29.40
2019-05-25T11:21:37.716Z,29.30
2019-05-25T11:24:08.082Z,29.40
2019-05-25T11:26:38.846Z,29.60
2019-05-25T11:29:10.283Z,29.80
2019-05-25T11:31:40.623Z,29.90
2019-05-25T11:34:11.026Z,30.10
2019-05-25T11:36:41.530Z,30.20
2019-05-25T11:39:11.911Z,30.30
2019-05-25T11:41:42.307Z,30.20
2019-05-25T11:44:14.357Z,29.80
2019-05-25T11:46:44.940Z,29.70
2019-05-25T11:49:22.567Z,29.60
2019-05-25T11:51:47.475Z,29.70
2019-05-25T11:54:17.897Z,29.70
2019-05-25T11:56:48.317Z,29.60
2019-05-25T11:59:18.630Z,29.50
2019-05-25T12:01:49.084Z,29.50
2019-05-25T12:04:19.495Z,29.40
2019-05-25T12:06:49.918Z,29.20
2019-05-25T12:09:20.286Z,29.40
2019-05-25T12:11:51.291Z,29.60
2019-05-25T12:14:21.610Z,29.80
2019-05-25T12:16:52.032Z,29.70
2019-05-25T12:19:22.376Z,29.30
2019-05-25T12:21:52.759Z,28.80
2019-05-25T12:24:23.246Z,28.70
2019-05-25T12:26:53.905Z,28.80
2019-05-25T12:29:24.320Z,28.80
2019-05-25T12:32:03.631Z,28.40
2019-05-25T12:34:28.012Z,27.60
2019-05-25T12:36:58.346Z,27.20
2019-05-25T12:39:28.604Z,27.30
2019-05-25T12:41:58.964Z,27.50
2019-05-25T12:44:29.385Z,27.60
2019-05-25T12:46:59.796Z,27.80
2019-05-25T12:49:49.079Z,27.80
2019-05-25T12:52:02.088Z,27.40
2019-05-25T12:54:32.824Z,26.80
2019-05-25T12:57:03.203Z,26.10
2019-05-25T12:59:33.528Z,25.60
2019-05-25T13:02:04.078Z,25.30
2019-05-25T13:04:34.465Z,25.00
2019-05-25T13:07:04.867Z,24.80
2019-05-25T13:09:35.329Z,24.70
2019-05-25T13:12:06.076Z,24.80
2019-05-25T13:14:36.423Z,24.90
2019-05-25T13:17:06.805Z,24.90
2019-05-25T13:19:38.580Z,24.70
2019-05-25T13:22:08.920Z,24.60
2019-05-25T13:24:39.782Z,24.60
2019-05-25T13:27:10.151Z,24.60
2019-05-25T13:29:40.530Z,24.60
2019-05-25T13:32:10.962Z,24.70
2019-05-25T13:34:41.367Z,24.60
2019-05-25T13:37:12.171Z,24.50
2019-05-25T13:39:43.627Z,24.40
2019-05-25T13:42:14.026Z,24.30
2019-05-25T13:44:44.426Z,24.30
2019-05-25T13:47:14.820Z,24.30
2019-05-25T13:49:45.278Z,24.20
2019-05-25T13:52:17.139Z,24.10
2019-05-25T13:54:47.598Z,24.10
2019-05-25T13:57:18.378Z,24.00
2019-05-25T13:59:48.803Z,24.00
2019-05-25T14:02:19.195Z,24.00
2019-05-25T14:04:49.599Z,24.00
2019-05-25T14:07:19.982Z,23.90
2019-05-25T14:09:50.382Z,23.90
2019-05-25T14:12:20.747Z,23.80
2019-05-25T14:14:51.249Z,23.70
2019-05-25T14:17:21.566Z,23.70
2019-05-25T14:19:51.996Z,23.60
2019-05-25T14:22:22.467Z,23.60
2019-05-25T14:24:52.925Z,23.60
2019-05-25T14:27:23.904Z,23.50
2019-05-25T14:29:54.276Z,23.50
2019-05-25T14:32:24.730Z,23.50
2019-05-25T14:34:55.124Z,23.40
2019-05-25T14:37:25.523Z,23.40
2019-05-25T14:39:57.742Z,23.30
2019-05-25T14:42:28.080Z,23.30
2019-05-25T14:44:59.363Z,23.20
2019-05-25T14:47:29.759Z,23.10
2019-05-25T14:50:00.391Z,23.00
2019-05-25T14:52:31.153Z,23.00
2019-05-25T14:55:01.569Z,23.00
2019-05-25T14:57:31.883Z,22.90
2019-05-25T15:00:03.809Z,22.90
2019-05-25T15:02:40.324Z,23.00
2019-05-25T15:05:11.327Z,23.00
2019-05-25T15:07:41.736Z,22.90
2019-05-25T15:10:12.733Z,22.90
2019-05-25T15:12:43.123Z,22.90
2019-05-25T15:15:13.775Z,22.80
2019-05-25T15:17:44.433Z,22.70
2019-05-25T15:20:15.712Z,22.70
2019-05-25T15:22:47.025Z,22.60
2019-05-25T15:25:18.172Z,22.60
2019-05-25T15:27:48.633Z,22.60
2019-05-25T15:30:19.377Z,22.50
2019-05-25T15:32:49.779Z,22.40
2019-05-25T15:35:20.926Z,22.30
2019-05-25T15:37:51.497Z,22.30
2019-05-25T15:40:22.151Z,22.30
2019-05-25T15:42:52.457Z,22.20
2019-05-25T15:45:22.925Z,22.20
2019-05-25T15:47:53.395Z,22.20
2019-05-25T15:50:24.491Z,22.20
2019-05-25T15:52:56.745Z,22.10
2019-05-25T15:55:26.867Z,22.10
2019-05-25T15:57:57.337Z,22.10
2019-05-25T16:00:52.122Z,22.00
2019-05-25T16:03:22.974Z,21.90
2019-05-25T16:05:53.655Z,21.90
2019-05-25T16:08:23.985Z,21.90
2019-05-25T16:10:54.335Z,21.80
2019-05-25T16:13:24.679Z,21.80
2019-05-25T16:15:55.079Z,21.70
2019-05-25T16:18:25.467Z,21.60
2019-05-25T16:20:55.788Z,21.60
2019-05-25T16:23:26.110Z,21.60
2019-05-25T16:25:56.497Z,21.60
2019-05-25T16:28:26.891Z,21.50
2019-05-25T16:30:57.235Z,21.50
2019-05-25T16:33:27.749Z,21.40
2019-05-25T16:35:58.338Z,21.30
2019-05-25T16:38:28.735Z,21.20
2019-05-25T16:40:59.125Z,21.10
2019-05-25T16:43:29.521Z,21.00
2019-05-25T16:45:59.853Z,21.00
2019-05-25T16:48:30.255Z,20.90
2019-05-25T16:51:00.995Z,20.90
2019-05-25T16:53:31.306Z,20.90
2019-05-25T16:56:03.110Z,20.80
2019-05-25T16:58:33.507Z,20.70
2019-05-25T17:01:03.837Z,20.60
2019-05-25T17:03:34.505Z,20.60
2019-05-25T17:06:04.968Z,20.50
2019-05-25T17:08:35.403Z,20.40
2019-05-25T17:11:05.791Z,20.30
2019-05-25T17:13:36.313Z,20.20
2019-05-25T17:16:06.725Z,20.10
2019-05-25T17:18:37.075Z,20.10
2019-05-25T17:21:07.519Z,20.00
2019-05-25T17:23:38.922Z,20.00
2019-05-25T17:26:09.414Z,19.90
2019-05-25T17:28:39.779Z,19.80
2019-05-25T17:31:10.109Z,19.80
2019-05-25T17:33:45.915Z,19.70
2019-05-25T17:36:13.322Z,19.60
2019-05-25T17:38:43.754Z,19.50
2019-05-25T17:41:14.072Z,19.50
2019-05-25T17:43:44.771Z,19.40
2019-05-25T17:46:15.098Z,19.30
2019-05-25T17:48:48.275Z,19.20
2019-05-25T17:51:18.651Z,19.10
2019-05-25T17:53:49.216Z,19.00
2019-05-25T17:56:19.468Z,19.00
2019-05-25T17:58:50.005Z,18.90
2019-05-25T18:01:21.605Z,18.90
2019-05-25T18:04:05.635Z,18.80
2019-05-25T18:06:24.091Z,18.80
2019-05-25T18:08:54.487Z,18.70
2019-05-25T18:11:25.248Z,18.70
2019-05-25T18:13:55.695Z,18.70
2019-05-25T18:16:26.027Z,18.60
2019-05-25T18:18:56.579Z,18.50
2019-05-25T18:21:26.912Z,18.40
2019-05-25T18:23:57.200Z,18.30
2019-05-25T18:26:27.746Z,18.20
2019-05-25T18:28:58.732Z,18.10
2019-05-25T18:31:29.080Z,18.00
2019-05-25T18:33:59.535Z,17.90
2019-05-25T18:36:29.886Z,17.80
2019-05-25T18:39:00.168Z,17.80
2019-05-25T18:41:30.632Z,17.70
2019-05-25T18:44:04.064Z,17.60
2019-05-25T18:46:34.437Z,17.60
2019-05-25T18:49:04.841Z,17.50
2019-05-25T18:51:35.568Z,17.40
2019-05-25T18:54:06.079Z,17.40
2019-05-25T18:56:38.434Z,17.30
2019-05-25T18:59:10.204Z,17.30
2019-05-25T19:01:40.586Z,17.20
2019-05-25T19:04:10.966Z,17.10
2019-05-25T19:06:41.826Z,17.00
2019-05-25T19:09:12.193Z,16.90
2019-05-25T19:11:42.570Z,16.90
2019-05-25T19:14:13.035Z,16.80
2019-05-25T19:16:43.549Z,16.70
2019-05-25T19:19:13.924Z,16.70
2019-05-25T19:21:44.303Z,16.60
2019-05-25T19:24:14.770Z,16.60
2019-05-25T19:26:45.207Z,16.50
2019-05-25T19:29:15.625Z,16.40
2019-05-25T19:31:45.942Z,16.30
2019-05-25T19:34:16.357Z,16.30
2019-05-25T19:36:46.901Z,16.20
2019-05-25T19:39:17.195Z,16.10
2019-05-25T19:41:47.551Z,16.10
2019-05-25T19:44:17.911Z,16.00
2019-05-25T19:46:48.293Z,16.00
2019-05-25T19:49:18.675Z,16.00
2019-05-25T19:51:49.115Z,15.80
2019-05-25T19:54:19.545Z,15.80
2019-05-25T19:56:50.122Z,15.70
2019-05-25T19:59:20.613Z,15.70
2019-05-25T20:01:51.021Z,15.60
2019-05-25T20:04:21.391Z,15.60
2019-05-25T20:06:51.801Z,15.50
2019-05-25T20:09:22.109Z,15.40
2019-05-25T20:11:52.475Z,15.40
2019-05-25T20:14:22.795Z,15.30
2019-05-25T20:16:53.186Z,15.30
2019-05-25T20:19:23.484Z,15.20
2019-05-25T20:21:53.894Z,15.20
2019-05-25T20:24:24.573Z,15.10
2019-05-25T20:26:54.917Z,15.10
2019-05-25T20:29:25.338Z,15.00
2019-05-25T20:31:55.705Z,15.00
2019-05-25T20:34:26.046Z,14.90
2019-05-25T20:36:56.419Z,14.90
2019-05-25T20:39:26.804Z,14.80
2019-05-25T20:41:58.297Z,14.70
2019-05-25T20:44:28.673Z,14.70
2019-05-25T20:46:59.097Z,14.60
2019-05-25T20:49:29.668Z,14.60
2019-05-25T20:52:00.237Z,14.60
2019-05-25T20:54:30.704Z,14.50
2019-05-25T20:57:01.146Z,14.50
2019-05-25T20:59:32.692Z,14.40
2019-05-25T21:02:03.139Z,14.40
2019-05-25T21:04:33.594Z,14.40
2019-05-25T21:07:03.994Z,14.40
2019-05-25T21:09:34.421Z,14.30
2019-05-25T21:12:05.008Z,14.40
2019-05-25T21:14:35.394Z,14.30
2019-05-25T21:17:05.772Z,14.20
2019-05-25T21:19:37.187Z,14.20
2019-05-25T21:22:07.546Z,14.20
2019-05-25T21:24:37.888Z,14.20
2019-05-25T21:27:08.262Z,14.10
2019-05-25T21:29:38.622Z,14.10
2019-05-25T21:32:09.028Z,14.00
2019-05-25T21:34:39.515Z,13.90
2019-05-25T21:37:09.908Z,13.90
2019-05-25T21:39:40.220Z,13.80
2019-05-25T21:42:10.668Z,13.80
2019-05-25T21:44:41.028Z,13.80
2019-05-25T21:47:11.508Z,13.70
2019-05-25T21:49:41.746Z,13.70
2019-05-25T21:52:12.298Z,13.70
2019-05-25T21:54:42.660Z,13.70
2019-05-25T21:57:13.111Z,13.70
2019-05-25T21:59:43.528Z,13.70
2019-05-25T22:02:14.155Z,13.60
2019-05-25T22:04:44.644Z,13.60
2019-05-25T22:07:15.008Z,13.60
2019-05-25T22:09:45.456Z,13.60
2019-05-25T22:12:15.883Z,13.60
2019-05-25T22:14:46.292Z,13.50
2019-05-25T22:17:16.658Z,13.40
2019-05-25T22:19:47.092Z,13.40
2019-05-25T22:22:18.668Z,13.40
2019-05-25T22:24:49.068Z,13.30
2019-05-25T22:27:19.456Z,13.20
2019-05-25T22:29:49.853Z,13.20
2019-05-25T22:32:21.298Z,13.20
2019-05-25T22:34:51.714Z,13.10
2019-05-25T22:37:22.100Z,13.10
2019-05-25T22:39:52.502Z,13.00
2019-05-25T22:42:22.898Z,12.90
2019-05-25T22:44:53.371Z,12.90
2019-05-25T22:47:23.707Z,12.80
2019-05-25T22:49:54.091Z,12.80
2019-05-25T22:52:24.482Z,12.70
2019-05-25T22:54:55.119Z,12.70
2019-05-25T22:57:25.542Z,12.60
2019-05-25T22:59:55.910Z,12.60
2019-05-25T23:02:26.319Z,12.50
2019-05-25T23:04:56.712Z,12.50
2019-05-25T23:07:27.130Z,12.50
2019-05-25T23:09:57.466Z,12.50
2019-05-25T23:12:28.158Z,12.50
2019-05-25T23:14:58.507Z,12.60
2019-05-25T23:17:28.862Z,12.60
2019-05-25T23:19:59.213Z,12.50
2019-05-25T23:22:29.609Z,12.50
2019-05-25T23:24:59.966Z,12.40
2019-05-25T23:27:30.403Z,12.40
2019-05-25T23:30:00.764Z,12.30
2019-05-25T23:32:31.153Z,12.30
2019-05-25T23:35:01.588Z,12.30
2019-05-25T23:37:33.497Z,12.20
2019-05-25T23:40:05.284Z,12.20
2019-05-25T23:42:35.694Z,12.20
2019-05-25T23:45:07.289Z,12.10
2019-05-25T23:47:37.723Z,12.10
2019-05-25T23:50:09.315Z,12.10
2019-05-25T23:52:40.066Z,12.10
2019-05-25T23:55:10.802Z,12.00
2019-05-25T23:57:41.356Z,12.00
